createdAt,value
2018-02-24T00:00:55.208Z,27.20
2018-02-24T00:03:23.398Z,25.23
2018-02-24T00:05:51.545Z,25.83
2018-02-24T00:08:19.705Z,30.57
2018-02-24T00:10:48.640Z,21.07
2018-02-24T00:13:16.780Z,26.77
2018-02-24T00:15:44.937Z,34.00
2018-02-24T00:18:13.841Z,30.67
2018-02-24T00:20:42.817Z,26.60
2018-02-24T00:23:10.912Z,29.90
2018-02-24T00:25:39.068Z,30.13
2018-02-24T00:28:07.958Z,32.87
2018-02-24T00:30:36.886Z,31.53
2018-02-24T00:33:05.026Z,29.50
2018-02-24T00:35:33.216Z,33.80
2018-02-24T00:38:01.356Z,31.00
2018-02-24T00:40:29.518Z,34.27
2018-02-24T00:42:57.654Z,27.20
2018-02-24T00:45:25.813Z,32.40
2018-02-24T00:47:53.963Z,29.30
2018-02-24T00:50:22.894Z,27.57
2018-02-24T00:52:51.034Z,33.50
2018-02-24T00:55:19.212Z,30.60
2018-02-24T00:57:47.352Z,33.13
2018-02-24T01:00:15.493Z,31.60
2018-02-24T01:02:43.640Z,35.13
2018-02-24T01:05:11.777Z,28.03
2018-02-24T01:07:39.950Z,32.17
2018-02-24T01:10:08.092Z,32.70
2018-02-24T01:12:36.249Z,35.47
2018-02-24T01:15:05.148Z,37.47
2018-02-24T01:17:33.301Z,30.90
2018-02-24T01:20:01.448Z,32.67
2018-02-24T01:22:30.381Z,30.53
2018-02-24T01:24:58.533Z,32.87
2018-02-24T01:27:26.716Z,30.67
2018-02-24T01:29:54.862Z,29.43
2018-02-24T01:32:23.788Z,29.70
2018-02-24T01:34:51.928Z,34.53
2018-02-24T01:37:20.851Z,35.60
2018-02-24T01:39:48.997Z,34.90
2018-02-24T01:42:17.161Z,32.07
2018-02-24T01:44:46.062Z,36.57
2018-02-24T01:47:14.961Z,34.70
2018-02-24T01:49:43.168Z,38.60
2018-02-24T01:52:11.373Z,34.17
2018-02-24T01:54:39.573Z,35.27
2018-02-24T01:57:11.641Z,37.07
2018-02-24T01:59:39.944Z,41.97
2018-02-24T02:02:08.084Z,35.07
2018-02-24T02:04:36.305Z,34.93
2018-02-24T02:07:04.465Z,39.90
2018-02-24T02:09:32.624Z,35.37
2018-02-24T02:12:00.761Z,40.70
2018-02-24T02:14:28.954Z,33.03
2018-02-24T02:16:57.105Z,42.30
2018-02-24T02:19:25.309Z,38.03
2018-02-24T02:21:53.454Z,38.67
2018-02-24T02:24:21.617Z,36.63
2018-02-24T02:26:49.742Z,36.77
2018-02-24T02:29:17.880Z,32.77
2018-02-24T02:31:46.796Z,32.83
2018-02-24T02:34:14.949Z,35.93
2018-02-24T02:36:43.876Z,37.93
2018-02-24T02:39:12.031Z,35.00
2018-02-24T02:41:40.197Z,38.53
2018-02-24T02:44:09.100Z,40.57
2018-02-24T02:46:37.265Z,35.70
2018-02-24T02:49:05.405Z,37.27
2018-02-24T02:51:33.586Z,39.97
2018-02-24T02:54:02.515Z,42.17
2018-02-24T02:56:30.673Z,39.47
2018-02-24T02:58:58.805Z,40.13
2018-02-24T03:01:26.972Z,41.97
2018-02-24T03:03:55.109Z,42.40
2018-02-24T03:06:23.245Z,37.87
2018-02-24T03:08:52.172Z,42.77
2018-02-24T03:11:20.331Z,42.17
2018-02-24T03:13:48.506Z,43.40
2018-02-24T03:16:16.645Z,37.13
2018-02-24T03:18:44.808Z,42.87
2018-02-24T03:21:12.949Z,46.30
2018-02-24T03:23:41.096Z,40.67
2018-02-24T03:26:09.229Z,46.57
2018-02-24T03:28:37.396Z,40.70
2018-02-24T03:31:05.536Z,44.37
2018-02-24T03:33:33.704Z,41.13
2018-02-24T03:36:01.841Z,49.10
2018-02-24T03:38:30.773Z,41.87
2018-02-24T03:40:58.909Z,39.33
2018-02-24T03:43:27.839Z,43.03
2018-02-24T03:45:56.317Z,38.80
2018-02-24T03:48:24.461Z,47.77
2018-02-24T03:50:53.389Z,42.17
2018-02-24T03:53:21.529Z,41.93
2018-02-24T03:55:49.684Z,45.80
2018-02-24T03:58:18.600Z,39.33
2018-02-24T04:00:46.764Z,45.43
2018-02-24T04:03:14.888Z,47.17
2018-02-24T04:05:43.054Z,46.80
2018-02-24T04:08:11.188Z,45.53
2018-02-24T04:10:39.354Z,47.73
2018-02-24T04:13:07.506Z,45.70
2018-02-24T04:15:35.669Z,43.77
2018-02-24T04:18:03.804Z,38.80
2018-02-24T04:20:31.961Z,40.73
2018-02-24T04:23:00.125Z,42.20
2018-02-24T04:25:28.330Z,42.80
2018-02-24T04:27:56.473Z,46.57
2018-02-24T04:30:24.604Z,43.13
2018-02-24T04:32:52.752Z,37.70
2018-02-24T04:35:20.884Z,39.97
2018-02-24T04:37:49.805Z,46.03
2018-02-24T04:40:17.948Z,40.93
2018-02-24T04:42:46.868Z,41.70
2018-02-24T04:45:15.007Z,41.67
2018-02-24T04:47:43.156Z,40.93
2018-02-24T04:50:11.297Z,44.43
2018-02-24T04:52:39.454Z,44.20
2018-02-24T04:55:07.588Z,35.73
2018-02-24T04:57:36.537Z,38.87
2018-02-24T05:00:04.664Z,45.43
2018-02-24T05:02:33.581Z,44.83
2018-02-24T05:05:01.716Z,44.77
2018-02-24T05:07:30.667Z,42.87
2018-02-24T05:09:58.797Z,43.50
2018-02-24T05:12:27.701Z,41.13
2018-02-24T05:14:55.856Z,47.53
2018-02-24T05:17:24.779Z,39.23
2018-02-24T05:19:52.944Z,46.37
2018-02-24T05:22:21.102Z,42.97
2018-02-24T05:24:49.282Z,42.60
2018-02-24T05:27:17.424Z,40.63
2018-02-24T05:29:46.376Z,42.47
2018-02-24T05:32:14.597Z,41.40
2018-02-24T05:34:43.577Z,43.80
2018-02-24T05:37:11.766Z,48.60
2018-02-24T05:39:39.966Z,47.67
2018-02-24T05:42:08.101Z,42.87
2018-02-24T05:44:36.256Z,46.07
2018-02-24T05:47:04.396Z,43.67
2018-02-24T05:49:32.556Z,42.03
2018-02-24T05:52:00.688Z,38.93
2018-02-24T05:54:28.844Z,45.13
2018-02-24T05:56:57.002Z,43.93
2018-02-24T05:59:25.149Z,45.63
2018-02-24T06:01:53.308Z,42.77
2018-02-24T06:04:21.468Z,51.50
2018-02-24T06:06:50.399Z,44.27
2018-02-24T06:09:18.542Z,43.80
2018-02-24T06:11:47.468Z,48.73
2018-02-24T06:14:15.609Z,48.60
2018-02-24T06:16:43.769Z,43.70
2018-02-24T06:19:12.677Z,44.80
2018-02-24T06:21:40.844Z,46.30
2018-02-24T06:24:08.978Z,45.17
2018-02-24T06:26:37.132Z,42.77
2018-02-24T06:29:05.265Z,45.97
2018-02-24T06:31:33.429Z,37.47
2018-02-24T06:34:02.337Z,42.03
2018-02-24T06:36:30.501Z,46.07
2018-02-24T06:38:58.633Z,44.83
2018-02-24T06:41:26.804Z,42.97
2018-02-24T06:43:54.949Z,45.00
2018-02-24T06:46:23.117Z,45.13
2018-02-24T06:48:51.312Z,46.50
2018-02-24T06:51:19.480Z,43.90
2018-02-24T06:53:47.623Z,40.03
2018-02-24T06:56:15.777Z,47.60
2018-02-24T06:58:44.674Z,47.23
2018-02-24T07:01:13.606Z,51.67
2018-02-24T07:03:41.742Z,45.37
2018-02-24T07:06:10.674Z,46.20
2018-02-24T07:08:38.818Z,43.10
2018-02-24T07:11:06.973Z,45.33
2018-02-24T07:13:35.885Z,49.10
2018-02-24T07:16:04.045Z,51.37
2018-02-24T07:18:32.204Z,44.20
2018-02-24T07:21:01.129Z,42.07
2018-02-24T07:23:29.269Z,42.63
2018-02-24T07:25:58.317Z,43.83
2018-02-24T07:28:26.541Z,40.87
2018-02-24T07:30:55.564Z,43.93
2018-02-24T07:33:23.744Z,40.80
2018-02-24T07:35:51.944Z,43.80
2018-02-24T07:38:20.152Z,51.90
2018-02-24T07:40:49.126Z,46.17
2018-02-24T07:43:17.325Z,48.67
2018-02-24T07:45:46.282Z,45.70
2018-02-24T07:48:14.478Z,42.77
2018-02-24T07:50:43.467Z,36.70
2018-02-24T07:53:11.649Z,36.53
2018-02-24T07:55:40.548Z,39.93
2018-02-24T07:58:09.470Z,36.27
2018-02-24T08:00:37.608Z,43.10
2018-02-24T08:03:06.536Z,40.13
2018-02-24T08:05:34.677Z,42.40
2018-02-24T08:08:03.601Z,36.20
2018-02-24T08:10:31.761Z,37.50
2018-02-24T08:12:59.912Z,34.77
2018-02-24T08:15:28.841Z,42.90
2018-02-24T08:17:57.008Z,35.30
2018-02-24T08:20:25.144Z,36.57
2018-02-24T08:22:54.069Z,33.90
2018-02-24T08:25:22.222Z,39.67
2018-02-24T08:27:50.372Z,32.07
2018-02-24T08:30:18.579Z,36.67
2018-02-24T08:32:46.729Z,33.63
2018-02-24T08:35:14.897Z,32.20
2018-02-24T08:37:43.044Z,32.97
2018-02-24T08:40:11.202Z,31.00
2018-02-24T08:42:39.345Z,29.53
2018-02-24T08:45:07.517Z,31.97
2018-02-24T08:47:35.658Z,32.77
2018-02-24T08:50:03.825Z,29.40
2018-02-24T08:52:31.961Z,28.53
2018-02-24T08:55:00.118Z,30.10
2018-02-24T08:57:28.257Z,28.53
2018-02-24T08:59:57.186Z,24.90
2018-02-24T09:02:25.321Z,26.43
2018-02-24T09:04:54.250Z,26.60
2018-02-24T09:07:22.406Z,30.30
2018-02-24T09:09:50.556Z,27.23
2018-02-24T09:12:18.693Z,23.93
2018-02-24T09:14:46.865Z,22.10
2018-02-24T09:17:15.016Z,21.97
2018-02-24T09:19:43.163Z,18.57
2018-02-24T09:22:12.079Z,19.87
2018-02-24T09:24:40.216Z,17.93
2018-02-24T09:27:09.187Z,18.47
2018-02-24T09:29:44.857Z,19.17
2018-02-24T09:32:13.011Z,19.33
2018-02-24T09:34:41.145Z,21.03
2018-02-24T09:37:09.283Z,20.23
2018-02-24T09:39:38.173Z,24.53
2018-02-24T09:42:07.091Z,22.70
2018-02-24T09:44:35.978Z,21.90
2018-02-24T09:47:04.133Z,22.17
2018-02-24T09:49:32.289Z,18.77
2018-02-24T09:52:01.188Z,21.20
2018-02-24T09:54:30.106Z,21.07
2018-02-24T09:56:58.309Z,18.50
2018-02-24T09:59:26.458Z,18.83
2018-02-24T10:01:54.598Z,16.37
2018-02-24T10:04:23.509Z,23.33
2018-02-24T10:06:51.645Z,20.57
2018-02-24T10:09:19.797Z,22.97
2018-02-24T10:11:47.924Z,20.33
2018-02-24T10:14:16.086Z,20.23
2018-02-24T10:16:44.261Z,18.67
2018-02-24T10:19:12.437Z,22.60
2018-02-24T10:21:40.573Z,20.03
2018-02-24T10:24:08.765Z,22.33
2018-02-24T10:26:37.682Z,19.90
2018-02-24T10:29:05.833Z,20.27
2018-02-24T10:31:34.754Z,20.53
2018-02-24T10:34:03.034Z,29.73
2018-02-24T10:36:31.925Z,20.07
2018-02-24T10:39:00.140Z,17.77
2018-02-24T10:41:28.301Z,21.60
2018-02-24T10:43:56.481Z,25.63
2018-02-24T10:46:24.642Z,19.97
2018-02-24T10:49:10.617Z,16.67
2018-02-24T10:51:38.803Z,17.80
2018-02-24T10:54:06.943Z,15.90
2018-02-24T10:56:35.105Z,15.00
2018-02-24T10:59:04.005Z,15.10
2018-02-24T11:01:32.153Z,16.83
2018-02-24T11:04:01.057Z,16.00
2018-02-24T11:06:29.964Z,14.17
2018-02-24T11:08:58.113Z,15.13
2018-02-24T11:11:26.323Z,15.60
2018-02-24T11:13:55.181Z,15.60
2018-02-24T11:16:23.433Z,19.33
2018-02-24T11:18:52.343Z,15.50
2018-02-24T11:21:21.365Z,17.50
2018-02-24T11:23:49.560Z,15.83
2018-02-24T11:26:17.818Z,13.70
2018-02-24T11:28:45.972Z,15.67
2018-02-24T11:31:14.157Z,13.50
2018-02-24T11:33:42.356Z,18.10
2018-02-24T11:36:10.561Z,15.47
2018-02-24T11:38:38.733Z,13.43
2018-02-24T11:41:06.933Z,12.60
2018-02-24T11:43:35.890Z,16.57
2018-02-24T11:46:04.093Z,12.90
2018-02-24T11:48:33.035Z,14.43
2018-02-24T11:51:01.251Z,16.10
2018-02-24T11:53:30.170Z,13.80
2018-02-24T11:56:01.534Z,14.43
2018-02-24T11:58:29.665Z,15.20
2018-02-24T12:00:58.581Z,15.20
2018-02-24T12:03:26.751Z,13.40
2018-02-24T12:05:54.932Z,14.10
2018-02-24T12:08:23.161Z,14.00
2018-02-24T12:10:51.331Z,11.50
2018-02-24T12:13:19.533Z,11.43
2018-02-24T12:15:49.390Z,9.90
2018-02-24T12:18:17.609Z,11.87
2018-02-24T12:20:46.533Z,12.23
2018-02-24T12:23:14.770Z,10.97
2018-02-24T12:25:42.945Z,10.17
2018-02-24T12:28:11.105Z,11.23
2018-02-24T12:30:39.244Z,11.43
2018-02-24T12:33:07.401Z,11.07
2018-02-24T12:35:35.554Z,10.03
2018-02-24T12:38:04.477Z,10.83
2018-02-24T12:40:32.613Z,13.43
2018-02-24T12:43:01.585Z,11.17
2018-02-24T12:45:29.721Z,12.13
2018-02-24T12:47:57.965Z,12.67
2018-02-24T12:50:26.881Z,11.67
2018-02-24T12:52:55.038Z,11.63
2018-02-24T12:55:23.176Z,12.63
2018-02-24T12:57:51.408Z,11.97
2018-02-24T13:00:19.540Z,13.17
2018-02-24T13:02:48.464Z,10.70
2018-02-24T13:05:17.574Z,12.63
2018-02-24T13:07:45.741Z,12.03
2018-02-24T13:10:13.909Z,11.83
2018-02-24T13:12:42.069Z,12.23
2018-02-24T13:15:10.200Z,12.67
2018-02-24T13:17:38.351Z,9.27
2018-02-24T13:20:06.485Z,9.33
2018-02-24T13:22:34.645Z,9.93
2018-02-24T13:25:02.781Z,9.20
2018-02-24T13:27:31.013Z,8.77
2018-02-24T13:29:59.228Z,9.00
2018-02-24T13:32:27.410Z,9.50
2018-02-24T13:34:55.555Z,8.27
2018-02-24T13:37:23.706Z,10.07
2018-02-24T13:39:51.837Z,7.20
2018-02-24T13:42:19.988Z,8.47
2018-02-24T13:44:48.121Z,10.70
2018-02-24T13:47:16.305Z,7.03
2018-02-24T13:49:44.450Z,8.60
2018-02-24T13:52:13.378Z,7.80
2018-02-24T13:54:41.505Z,7.07
2018-02-24T13:57:09.678Z,7.40
2018-02-24T13:59:37.808Z,8.67
2018-02-24T14:02:06.006Z,8.43
2018-02-24T14:04:34.210Z,9.97
2018-02-24T14:07:02.426Z,8.43
2018-02-24T14:09:30.557Z,6.93
2018-02-24T14:11:58.818Z,7.80
2018-02-24T14:14:27.781Z,8.60
2018-02-24T14:16:56.030Z,7.83
2018-02-24T14:19:24.160Z,6.97
2018-02-24T14:21:53.085Z,7.00
2018-02-24T14:24:21.222Z,6.07
2018-02-24T14:26:49.380Z,7.63
2018-02-24T14:29:17.505Z,8.17
2018-02-24T14:31:45.648Z,7.03
2018-02-24T14:34:14.545Z,8.40
2018-02-24T14:36:43.471Z,9.00
2018-02-24T14:39:11.616Z,6.43
2018-02-24T14:41:39.745Z,8.33
2018-02-24T14:44:07.893Z,7.20
2018-02-24T14:46:36.040Z,6.50
2018-02-24T14:49:04.230Z,6.53
2018-02-24T14:51:32.364Z,7.53
2018-02-24T14:54:01.285Z,6.83
2018-02-24T14:56:29.413Z,5.73
2018-02-24T14:58:57.558Z,7.33
2018-02-24T15:01:25.677Z,5.80
2018-02-24T15:03:54.589Z,7.67
2018-02-24T15:06:22.726Z,10.67
2018-02-24T15:08:50.872Z,5.70
2018-02-24T15:11:18.992Z,5.13
2018-02-24T15:13:47.133Z,5.40
2018-02-24T15:16:15.269Z,8.80
2018-02-24T15:18:43.412Z,5.67
2018-02-24T15:21:11.528Z,5.93
2018-02-24T15:23:39.670Z,5.93
2018-02-24T15:26:07.805Z,4.67
2018-02-24T15:28:35.956Z,5.67
2018-02-24T15:31:04.106Z,6.83
2018-02-24T15:33:32.246Z,4.57
2018-02-24T15:36:01.141Z,5.63
2018-02-24T15:38:29.293Z,6.10
2018-02-24T15:40:58.198Z,4.57
2018-02-24T15:43:26.350Z,8.83
2018-02-24T15:45:54.476Z,5.80
2018-02-24T15:48:22.618Z,6.10
2018-02-24T15:50:51.505Z,5.80
2018-02-24T15:53:20.429Z,7.80
2018-02-24T15:55:48.544Z,7.67
2018-02-24T15:58:16.692Z,8.30
2018-02-24T16:00:44.817Z,8.27
2018-02-24T16:03:12.965Z,8.67
2018-02-24T16:05:41.112Z,10.73
2018-02-24T16:08:09.249Z,6.90
2018-02-24T16:10:37.392Z,6.13
2018-02-24T16:13:06.309Z,8.83
2018-02-24T16:15:34.437Z,8.77
2018-02-24T16:18:02.580Z,10.67
2018-02-24T16:20:30.705Z,8.73
2018-02-24T16:22:59.617Z,7.03
2018-02-24T16:25:27.776Z,9.90
2018-02-24T16:27:56.666Z,8.50
2018-02-24T16:30:25.565Z,6.83
2018-02-24T16:32:54.478Z,5.90
2018-02-24T16:35:22.613Z,6.90
2018-02-24T16:37:51.501Z,6.67
2018-02-24T16:40:20.430Z,11.13
2018-02-24T16:42:48.548Z,9.00
2018-02-24T16:45:16.700Z,8.93
2018-02-24T16:47:44.830Z,6.23
2018-02-24T16:50:12.974Z,7.07
2018-02-24T16:52:41.101Z,4.90
2018-02-24T16:55:09.254Z,5.07
2018-02-24T16:57:37.395Z,7.50
2018-02-24T17:00:05.541Z,7.90
2018-02-24T17:02:33.675Z,5.40
2018-02-24T17:05:01.833Z,4.93
2018-02-24T17:07:30.737Z,5.57
2018-02-24T17:09:58.972Z,53.53
2018-02-24T17:12:27.135Z,6.47
2018-02-24T17:14:55.272Z,4.23
2018-02-24T17:17:23.420Z,2.40
2018-02-24T17:19:51.544Z,7.90
2018-02-24T17:22:19.693Z,5.73
2018-02-24T17:24:47.830Z,12.30
2018-02-24T17:27:16.750Z,5.53
2018-02-24T17:29:44.881Z,5.57
2018-02-24T17:32:13.033Z,5.90
2018-02-24T17:34:41.170Z,4.77
2018-02-24T17:37:09.331Z,3.40
2018-02-24T17:39:37.468Z,4.20
2018-02-24T17:42:05.635Z,3.53
2018-02-24T17:44:33.830Z,4.37
2018-02-24T17:47:02.749Z,4.10
2018-02-24T17:49:30.896Z,4.20
2018-02-24T17:51:59.791Z,6.07
2018-02-24T17:54:28.708Z,4.40
2018-02-24T17:56:56.865Z,2.63
2018-02-24T17:59:25.018Z,3.43
2018-02-24T18:01:53.925Z,3.90
2018-02-24T18:04:22.094Z,8.23
2018-02-24T18:06:51.009Z,10.73
2018-02-24T18:09:19.164Z,5.80
2018-02-24T18:11:47.297Z,7.67
2018-02-24T18:14:15.429Z,12.27
2018-02-24T18:16:43.589Z,30.93
2018-02-24T18:19:11.729Z,9.77
2018-02-24T18:21:40.648Z,5.03
2018-02-24T18:24:08.777Z,2.57
2018-02-24T18:26:36.930Z,3.07
2018-02-24T18:29:05.072Z,4.20
2018-02-24T18:31:33.229Z,3.67
2018-02-24T18:34:02.121Z,4.37
2018-02-24T18:36:31.037Z,3.07
2018-02-24T18:38:59.187Z,2.67
2018-02-24T18:41:28.109Z,3.37
2018-02-24T18:43:57.100Z,6.23
2018-02-24T18:46:25.384Z,5.73
2018-02-24T18:48:53.518Z,3.90
2018-02-24T18:51:21.669Z,4.27
2018-02-24T18:53:49.826Z,5.17
2018-02-24T18:56:17.962Z,5.40
2018-02-24T18:58:46.119Z,3.47
2018-02-24T19:01:14.253Z,3.00
2018-02-24T19:03:42.409Z,7.07
2018-02-24T19:06:10.541Z,6.00
2018-02-24T19:08:38.697Z,6.90
2018-02-24T19:11:07.593Z,6.60
2018-02-24T19:13:35.749Z,4.43
2018-02-24T19:16:04.649Z,7.00
2018-02-24T19:18:33.561Z,4.93
2018-02-24T19:21:01.726Z,5.70
2018-02-24T19:23:29.885Z,8.33
2018-02-24T19:25:58.780Z,9.00
2018-02-24T19:28:26.940Z,4.57
2018-02-24T19:30:55.851Z,4.77
2018-02-24T19:33:23.989Z,4.00
2018-02-24T19:35:54.079Z,4.67
2018-02-24T19:38:22.205Z,4.03
2018-02-24T19:40:51.149Z,3.10
2018-02-24T19:43:19.301Z,3.90
2018-02-24T19:45:47.514Z,4.97
2018-02-24T19:48:15.702Z,6.03
2018-02-24T19:50:44.657Z,5.07
2018-02-24T19:53:12.814Z,3.10
2018-02-24T19:55:41.053Z,6.13
2018-02-24T19:58:09.993Z,4.00
2018-02-24T20:00:38.193Z,4.13
2018-02-24T20:03:06.421Z,2.63
2018-02-24T20:05:34.693Z,3.87
2018-02-24T20:08:02.854Z,3.77
2018-02-24T20:10:31.046Z,4.73
2018-02-24T20:12:59.207Z,3.57
2018-02-24T20:15:27.454Z,5.33
2018-02-24T20:17:56.377Z,5.23
2018-02-24T20:20:24.622Z,3.90
2018-02-24T20:22:53.556Z,3.20
2018-02-24T20:25:21.718Z,5.87
2018-02-24T20:27:49.910Z,5.17
2018-02-24T20:30:18.098Z,4.33
2018-02-24T20:32:46.278Z,6.10
2018-02-24T20:35:17.985Z,5.33
2018-02-24T20:37:46.226Z,11.43
2018-02-24T20:40:14.385Z,8.40
2018-02-24T20:42:42.605Z,9.57
2018-02-24T20:45:10.819Z,11.27
2018-02-24T20:47:39.005Z,9.00
2018-02-24T20:50:07.166Z,5.27
2018-02-24T20:52:35.358Z,5.40
2018-02-24T20:55:04.447Z,5.20
2018-02-24T20:57:32.674Z,4.07
2018-02-24T21:00:00.852Z,5.87
2018-02-24T21:02:29.117Z,4.83
2018-02-24T21:04:58.043Z,5.23
2018-02-24T21:07:26.317Z,7.60
2018-02-24T21:09:54.508Z,8.40
2018-02-24T21:12:22.653Z,4.17
2018-02-24T21:14:50.831Z,8.43
2018-02-24T21:17:18.997Z,5.20
2018-02-24T21:19:47.202Z,4.83
2018-02-24T21:22:15.373Z,7.93
2018-02-24T21:24:43.594Z,6.00
2018-02-24T21:27:12.500Z,12.80
2018-02-24T21:29:40.649Z,13.47
2018-02-24T21:32:09.556Z,7.63
2018-02-24T21:34:37.705Z,9.50
2018-02-24T21:37:05.845Z,9.87
2018-02-24T21:39:34.005Z,16.33
2018-02-24T21:42:02.153Z,10.67
2018-02-24T21:44:30.308Z,10.07
2018-02-24T21:46:58.436Z,6.13
2018-02-24T21:49:26.597Z,7.33
2018-02-24T21:51:54.725Z,11.93
2018-02-24T21:54:23.621Z,7.37
2018-02-24T21:56:51.791Z,12.40
2018-02-24T21:59:19.925Z,7.70
2018-02-24T22:01:48.082Z,11.10
2018-02-24T22:04:16.213Z,11.23
2018-02-24T22:06:45.151Z,15.93
2018-02-24T22:09:13.289Z,15.27
2018-02-24T22:11:42.201Z,15.93
2018-02-24T22:14:10.337Z,22.70
2018-02-24T22:16:38.492Z,8.07
2018-02-24T22:19:06.637Z,9.73
2018-02-24T22:21:34.781Z,7.30
2018-02-24T22:24:02.915Z,4.93
2018-02-24T22:26:31.061Z,8.37
2018-02-24T22:28:59.193Z,8.57
2018-02-24T22:31:27.349Z,10.07
2018-02-24T22:33:56.255Z,6.57
2018-02-24T22:36:24.434Z,7.13
2018-02-24T22:38:52.570Z,8.67
2018-02-24T22:41:20.745Z,7.67
2018-02-24T22:43:48.887Z,8.03
2018-02-24T22:46:17.032Z,10.40
2018-02-24T22:48:50.820Z,8.00
2018-02-24T22:51:19.721Z,10.67
2018-02-24T22:53:47.868Z,5.60
2018-02-24T22:56:16.774Z,6.33
2018-02-24T22:58:44.953Z,7.33
2018-02-24T23:01:13.094Z,6.37
2018-02-24T23:03:41.245Z,6.83
2018-02-24T23:06:10.318Z,9.43
2018-02-24T23:08:38.465Z,8.73
2018-02-24T23:11:06.606Z,8.77
2018-02-24T23:13:34.776Z,13.90
2018-02-24T23:16:02.913Z,8.73
2018-02-24T23:18:31.814Z,8.27
2018-02-24T23:20:59.969Z,7.37
2018-02-24T23:23:28.113Z,9.27
2018-02-24T23:25:57.046Z,7.53
2018-02-24T23:28:26.052Z,9.37
2018-02-24T23:30:54.212Z,10.13
2018-02-24T23:33:22.345Z,11.30
2018-02-24T23:35:51.273Z,10.73
2018-02-24T23:38:19.421Z,8.67
2018-02-24T23:40:47.578Z,7.27
2018-02-24T23:43:16.477Z,10.97
2018-02-24T23:45:48.617Z,16.33
2018-02-24T23:48:16.754Z,12.10
2018-02-24T23:50:44.942Z,8.53
2018-02-24T23:53:13.076Z,11.70
2018-02-24T23:55:41.230Z,10.63
2018-02-24T23:58:10.129Z,12.93
